createdAt,value
2023-05-10T00:01:43.245Z,25
2023-05-10T00:06:43.246Z,25
2023-05-10T00:11:43.237Z,19
2023-05-10T00:16:43.250Z,16
2023-05-10T00:21:43.241Z,19
2023-05-10T00:26:43.253Z,18
2023-05-10T00:31:43.244Z,16
2023-05-10T00:36:43.257Z,15
2023-05-10T00:41:43.258Z,23
2023-05-10T00:46:43.249Z,18
2023-05-10T00:51:43.262Z,20
2023-05-10T00:56:43.252Z,21
2023-05-10T01:01:43.265Z,21
2023-05-10T01:11:43.268Z,23
2023-05-10T01:21:43.260Z,16
2023-05-10T01:26:43.273Z,17
2023-05-10T01:31:43.264Z,15
2023-05-10T01:36:43.276Z,12
2023-05-10T01:41:43.278Z,15
2023-05-10T01:46:43.269Z,13
2023-05-10T01:51:43.282Z,9
2023-05-10T01:56:43.272Z,13
2023-05-10T02:01:43.284Z,15
2023-05-10T02:06:43.286Z,14
2023-05-10T02:11:43.288Z,16
2023-05-10T02:16:43.290Z,23
2023-05-10T02:21:43.280Z,19
2023-05-10T02:26:43.293Z,25
2023-05-10T02:31:43.283Z,23
2023-05-10T02:36:43.296Z,15
2023-05-10T02:41:43.297Z,16
2023-05-10T02:46:43.288Z,16
2023-05-10T02:51:43.301Z,23
2023-05-10T02:56:43.291Z,16
2023-05-10T03:01:43.304Z,20
2023-05-10T03:06:43.305Z,28
2023-05-10T03:11:43.307Z,18
2023-05-10T03:16:43.373Z,19
2023-05-10T03:21:43.299Z,26
2023-05-10T03:26:43.355Z,16
2023-05-10T03:31:43.303Z,19
2023-05-10T03:36:43.315Z,30
2023-05-10T03:41:43.317Z,30
2023-05-10T03:46:43.318Z,24
2023-05-10T03:51:43.320Z,20
2023-05-10T03:56:43.311Z,19
2023-05-10T04:01:43.323Z,25
2023-05-10T04:06:43.314Z,22
2023-05-10T04:11:43.326Z,24
2023-05-10T04:16:43.328Z,28
2023-05-10T04:21:43.318Z,23
2023-05-10T04:26:43.332Z,30
2023-05-10T04:31:43.322Z,31
2023-05-10T04:36:43.334Z,20
2023-05-10T04:41:43.336Z,18
2023-05-10T04:46:43.337Z,22
2023-05-10T04:51:43.339Z,38
2023-05-10T04:56:43.330Z,31
2023-05-10T05:01:43.342Z,38
2023-05-10T05:06:43.333Z,32
2023-05-10T05:11:43.345Z,29
2023-05-10T05:16:43.347Z,56
2023-05-10T05:21:43.338Z,69
2023-05-10T05:26:43.351Z,65
2023-05-10T05:31:43.341Z,55
2023-05-10T05:36:43.353Z,39
2023-05-10T05:41:43.355Z,64
2023-05-10T05:51:43.383Z,62
2023-05-10T05:56:43.349Z,67
2023-05-10T06:01:43.361Z,76
2023-05-10T06:06:43.352Z,66
2023-05-10T06:11:43.429Z,70
2023-05-10T06:16:43.366Z,65
2023-05-10T06:21:43.409Z,88
2023-05-10T06:26:43.370Z,68
2023-05-10T06:31:43.360Z,68
2023-05-10T06:36:43.373Z,81
2023-05-10T06:41:43.364Z,78
2023-05-10T06:46:43.376Z,85
2023-05-10T06:51:43.378Z,73
2023-05-10T06:56:43.368Z,92
2023-05-10T07:01:43.382Z,81
2023-05-10T07:06:43.372Z,74
2023-05-10T07:11:43.384Z,81
2023-05-10T07:16:43.386Z,87
2023-05-10T07:21:43.388Z,75
2023-05-10T07:26:43.390Z,76
2023-05-10T07:31:43.380Z,60
2023-05-10T07:36:43.393Z,77
2023-05-10T07:41:43.384Z,88
2023-05-10T07:46:43.397Z,106
2023-05-10T07:51:43.399Z,110
2023-05-10T07:56:43.390Z,131
2023-05-10T08:01:43.403Z,151
2023-05-10T08:07:17.353Z,123
2023-05-10T08:11:43.406Z,118
2023-05-10T08:16:43.409Z,142
2023-05-10T08:21:43.399Z,109
2023-05-10T08:26:43.412Z,113
2023-05-10T08:31:43.403Z,118
2023-05-10T08:36:43.416Z,115
2023-05-10T08:41:43.418Z,114
2023-05-10T08:46:43.470Z,123
2023-05-10T08:51:43.423Z,104
2023-05-10T08:56:43.413Z,118
2023-05-10T09:01:43.426Z,102
2023-05-10T09:06:50.182Z,95
2023-05-10T09:11:43.430Z,106
2023-05-10T09:16:43.456Z,107
2023-05-10T09:21:43.423Z,103
2023-05-10T09:26:43.439Z,86
2023-05-10T09:31:43.427Z,83
2023-05-10T09:36:43.440Z,112
2023-05-10T09:41:43.443Z,105
2023-05-10T09:46:43.445Z,115
2023-05-10T09:51:43.447Z,95
2023-05-10T09:56:43.438Z,103
2023-05-10T10:01:43.451Z,128
2023-05-10T10:06:56.207Z,143
2023-05-10T10:11:43.456Z,168
2023-05-10T10:16:43.457Z,173
2023-05-10T10:21:43.448Z,159
2023-05-10T10:26:43.462Z,167
2023-05-10T10:31:43.452Z,152
2023-05-10T10:36:43.465Z,146
2023-05-10T10:41:43.467Z,164
2023-05-10T10:46:43.469Z,177
2023-05-10T10:51:43.472Z,151
2023-05-10T10:56:43.463Z,154
2023-05-10T11:01:43.476Z,149
2023-05-10T11:07:02.175Z,162
2023-05-10T11:11:43.480Z,144
2023-05-10T11:16:43.482Z,180
2023-05-10T11:21:43.473Z,164
2023-05-10T11:26:43.486Z,162
2023-05-10T11:31:43.477Z,173
2023-05-10T11:36:43.490Z,184
2023-05-10T11:41:43.492Z,154
2023-05-10T11:46:43.495Z,169
2023-05-10T11:51:43.497Z,142
2023-05-10T11:56:43.488Z,135
2023-05-10T12:01:43.528Z,137
2023-05-10T12:07:08.175Z,108
2023-05-10T12:11:43.506Z,97
2023-05-10T12:16:43.508Z,115
2023-05-10T12:21:43.499Z,142
2023-05-10T12:26:43.513Z,140
2023-05-10T12:31:43.503Z,164
2023-05-10T12:36:43.516Z,155
2023-05-10T12:41:43.507Z,124
2023-05-10T12:46:43.520Z,125
2023-05-10T12:51:43.522Z,138
2023-05-10T12:56:43.513Z,151
2023-05-10T13:01:43.527Z,153
2023-05-10T13:06:57.723Z,113
2023-05-10T13:11:43.530Z,117
2023-05-10T13:16:43.532Z,143
2023-05-10T13:21:43.534Z,123
2023-05-10T13:26:43.537Z,122
2023-05-10T13:31:43.538Z,149
2023-05-10T13:36:43.540Z,146
2023-05-10T13:41:43.531Z,137
2023-05-10T13:46:43.544Z,160
2023-05-10T13:51:43.546Z,132
2023-05-10T13:56:43.537Z,112
2023-05-10T14:01:43.550Z,116
2023-05-10T14:06:43.540Z,110
2023-05-10T14:11:43.553Z,114
2023-05-10T14:16:43.555Z,112
2023-05-10T14:21:43.557Z,128
2023-05-10T14:26:43.560Z,140
2023-05-10T14:31:43.550Z,130
2023-05-10T14:36:43.563Z,133
2023-05-10T14:41:43.554Z,142
2023-05-10T14:46:43.567Z,160
2023-05-10T14:51:43.569Z,138
2023-05-10T14:56:43.560Z,134
2023-05-10T15:01:43.574Z,146
2023-05-10T15:06:43.564Z,134
2023-05-10T15:11:43.577Z,120
2023-05-10T15:16:43.579Z,145
2023-05-10T15:21:43.581Z,119
2023-05-10T15:26:43.583Z,131
2023-05-10T15:31:43.574Z,128
2023-05-10T15:36:43.587Z,133
2023-05-10T15:41:43.578Z,116
2023-05-10T15:46:43.591Z,160
2023-05-10T15:51:43.592Z,135
2023-05-10T15:56:43.583Z,145
2023-05-10T16:01:43.597Z,172
2023-05-10T16:06:43.587Z,145
2023-05-10T16:11:43.600Z,148
2023-05-10T16:16:43.591Z,120
2023-05-10T16:21:43.604Z,128
2023-05-10T16:26:43.606Z,123
2023-05-10T16:31:43.597Z,124
2023-05-10T16:36:43.610Z,128
2023-05-10T16:41:43.601Z,127
2023-05-10T16:46:43.614Z,130
2023-05-10T16:51:43.616Z,95
2023-05-10T16:56:43.618Z,89
2023-05-10T17:01:43.620Z,120
2023-05-10T17:06:43.611Z,90
2023-05-10T17:11:43.623Z,79
2023-05-10T17:16:43.614Z,84
2023-05-10T17:21:43.627Z,83
2023-05-10T17:26:43.629Z,92
2023-05-10T17:31:43.620Z,85
2023-05-10T17:36:43.633Z,80
2023-05-10T17:41:43.624Z,76
2023-05-10T17:46:43.637Z,75
2023-05-10T17:51:43.638Z,73
2023-05-10T17:56:43.640Z,85
2023-05-10T18:01:43.643Z,83
2023-05-10T18:06:43.633Z,73
2023-05-10T18:11:43.646Z,97
2023-05-10T18:16:43.637Z,90
2023-05-10T18:21:43.649Z,97
2023-05-10T18:26:43.651Z,86
2023-05-10T18:31:43.642Z,113
2023-05-10T18:36:43.655Z,98
2023-05-10T18:41:43.645Z,104
2023-05-10T18:46:43.658Z,92
2023-05-10T18:51:43.660Z,85
2023-05-10T18:56:43.662Z,72
2023-05-10T19:01:43.664Z,59
2023-05-10T19:06:43.654Z,68
2023-05-10T19:11:43.667Z,69
2023-05-10T19:16:43.658Z,87
2023-05-10T19:21:43.670Z,72
2023-05-10T19:26:43.672Z,85
2023-05-10T19:31:43.674Z,88
2023-05-10T19:36:43.676Z,40
2023-05-10T19:41:43.666Z,39
2023-05-10T19:46:43.679Z,36
2023-05-10T19:51:43.670Z,50
2023-05-10T19:56:43.683Z,49
2023-05-10T20:01:43.684Z,59
2023-05-10T20:06:43.675Z,41
2023-05-10T20:11:43.688Z,35
2023-05-10T20:16:43.678Z,45
2023-05-10T20:21:43.691Z,54
2023-05-10T20:26:43.693Z,48
2023-05-10T20:31:43.695Z,51
2023-05-10T20:36:43.697Z,49
2023-05-10T20:41:43.687Z,61
2023-05-10T20:46:43.700Z,45
2023-05-10T20:51:43.690Z,42
2023-05-10T20:56:43.703Z,44
2023-05-10T21:01:43.705Z,48
2023-05-10T21:06:43.696Z,29
2023-05-10T21:11:43.709Z,33
2023-05-10T21:16:43.699Z,49
2023-05-10T21:21:43.711Z,38
2023-05-10T21:26:43.713Z,26
2023-05-10T21:31:43.715Z,39
2023-05-10T21:36:43.717Z,35
2023-05-10T21:41:43.707Z,33
2023-05-10T21:46:43.786Z,32
2023-05-10T21:51:43.711Z,34
2023-05-10T21:56:43.723Z,28
2023-05-10T22:01:43.725Z,38
2023-05-10T22:06:43.716Z,22
2023-05-10T22:11:43.729Z,25
2023-05-10T22:16:43.719Z,22
2023-05-10T22:21:43.731Z,23
2023-05-10T22:26:43.722Z,18
2023-05-10T22:31:43.735Z,23
2023-05-10T22:36:43.736Z,19
2023-05-10T22:41:43.727Z,19
2023-05-10T22:46:43.740Z,21
2023-05-10T22:51:43.730Z,16
2023-05-10T22:56:43.743Z,16
2023-05-10T23:01:43.744Z,19
2023-05-10T23:06:43.746Z,18
2023-05-10T23:11:43.748Z,18
2023-05-10T23:16:43.738Z,25
2023-05-10T23:21:43.751Z,18
2023-05-10T23:26:43.741Z,20
2023-05-10T23:31:43.754Z,17
2023-05-10T23:36:43.755Z,20
2023-05-10T23:41:43.746Z,17
2023-05-10T23:46:43.759Z,24
2023-05-10T23:51:43.749Z,23
2023-05-10T23:56:43.762Z,22
